Currently 62°F in Temecula, California, USA
62°F
63°F / 62°F
calm
0.00"
Monday, August 21, 2017 1:34 AM PDT

Temecula, California Weather Summary
Last 36 Hours

Temperature Winds Hourly Humidity Dewpoint
Time Report Norm Report Norm Max Gusts Precip. Rpt. Norm Rpt. Norm Pressure
1Mon 01:34 AM  62.2°F  66°F  calm  1 mph  none  0.00"  93%  81%  60°F  60°F  30.03"
Mon 01:00 AM  62.1°F  67°F  3 mph S  1 mph  5 mph  0.00"  93%  79%  60°F  60°F  30.03"
3Mon 12:55 AM  62.1°F  67°F  3 mph S  1 mph  5 mph  ----  93%  79%  60°F  60°F  30.03"
2Mon 12:00 AM  62.5°F  68°F  calm  1 mph  7 mph  0.00"  91%  77%  60°F  60°F  30.03"
Sun 11:00 PM  63.6°F  69°F  3 mph S  1 mph  7 mph  0.00"  88%  74%  60°F  60°F  30.03"
Sun 10:00 PM  64.7°F  70°F  1 mph E  1 mph  6 mph  0.00"  86%  70%  60°F  60°F  30.03"
Sun 09:00 PM  65.8°F  72°F  calm  3 mph  6 mph  0.00"  84%  65%  61°F  60°F  30.00"
Sun 08:00 PM  66.9°F  75°F  3 mph SW  3 mph  13 mph  0.00"  81%  57%  61°F  59°F  29.98"
Sun 07:00 PM  71.3°F  80°F  6 mph SW  6 mph  16 mph  0.00"  71%  48%  61°F  58°F  29.95"
Sun 06:00 PM  74.4°F  84°F  8 mph SW  8 mph  19 mph  0.00"  65%  41%  62°F  57°F  29.93"
Sun 05:00 PM  76.9°F  87°F  10 mph SW  9 mph  20 mph  0.00"  60%  37%  61°F  57°F  29.91"
Sun 04:00 PM  80.1°F  89°F  11 mph SW  10 mph  20 mph  0.00"  53%  35%  61°F  57°F  29.90"
Sun 03:00 PM  83.4°F  90°F  8 mph SW  9 mph  18 mph  0.00"  47%  34%  61°F  57°F  29.91"
Sun 02:00 PM  83.3°F  90°F  8 mph W  9 mph  15 mph  0.00"  46%  34%  60°F  57°F  29.94"
Sun 01:00 PM  81.4°F  89°F  9 mph SW  9 mph  11 mph  0.00"  49%  36%  60°F  58°F  29.96"
Sun 12:00 PM  76.8°F  86°F  4 mph SW  7 mph  7 mph  0.00"  61%  40%  62°F  59°F  29.99"
Sun 11:00 AM  70.1°F  82°F  2 mph W  4 mph  6 mph  0.00"  78%  49%  63°F  60°F  30.01"
Sun 10:00 AM  64.8°F  75°F  3 mph S  2 mph  4 mph  0.00"  91%  62%  62°F  61°F  30.03"
Sun 09:00 AM  62.6°F  69°F  calm  1 mph  5 mph  0.00"  95%  75%  61°F  60°F  30.03"
Sun 08:00 AM  61.2°F  65°F  calm  calm  7 mph  0.00"  96%  84%  60°F  60°F  30.03"
Sun 07:00 AM  60.8°F  63°F  calm  calm  none  0.00"  96%  87%  60°F  59°F  30.03"
Sun 06:00 AM  60.9°F  63°F  calm  calm  none  0.00"  96%  86%  60°F  59°F  30.00"
Sun 05:00 AM  61.4°F  64°F  calm  calm  none  0.00"  96%  85%  60°F  59°F  29.99"
Sun 04:00 AM  61.6°F  64°F  calm  calm  none  0.00"  95%  84%  60°F  59°F  29.99"
Sun 03:00 AM  62.0°F  65°F  calm  calm  none  0.00"  94%  83%  60°F  59°F  30.00"
Sun 02:00 AM  61.9°F  66°F  calm  calm  none  0.00"  95%  82%  60°F  60°F  30.02"
Sun 01:00 AM  61.8°F  66°F  calm  1 mph  7 mph  0.00"  95%  80%  60°F  60°F  30.03"
Sun 12:00 AM  62.1°F  67°F  4 mph S  1 mph  9 mph  0.00"  94%  78%  60°F  60°F  30.02"
Sat 11:00 PM  63.2°F  69°F  3 mph S  1 mph  10 mph  0.00"  91%  75%  60°F  60°F  30.02"
Sat 10:00 PM  64.7°F  70°F  6 mph S  1 mph  9 mph  0.00"  87%  71%  61°F  60°F  30.00"
Sat 09:00 PM  66.9°F  72°F  calm  3 mph  9 mph  0.00"  83%  66%  61°F  60°F  29.98"
Sat 08:00 PM  68.4°F  75°F  4 mph SW  3 mph  11 mph  0.00"  79%  58%  62°F  59°F  29.96"
Sat 07:00 PM  75.2°F  79°F  4 mph SW  6 mph  13 mph  0.00"  63%  49%  61°F  58°F  29.93"
Sat 06:00 PM  78.9°F  84°F  6 mph SW  8 mph  19 mph  0.00"  58%  42%  63°F  58°F  29.92"
Sat 05:00 PM  80.4°F  87°F  8 mph SW  9 mph  18 mph  0.00"  54%  37%  62°F  57°F  29.92"
Sat 04:00 PM  83.4°F  89°F  8 mph SW  9 mph  16 mph  0.00"  49%  35%  61°F  57°F  29.91"
Sat 03:00 PM  84.8°F  90°F  7 mph SW  9 mph  18 mph  0.00"  46%  34%  61°F  57°F  29.94"
Sat 02:00 PM  84.8°F  90°F  8 mph SW  9 mph  14 mph  0.00"  48%  34%  62°F  57°F  29.97"

  1. Current weather data. No green row appears if the current weather data is also the high or low for the current day.
  2. High temperature for the current day.
  3. Low temperature for the current day.

The Temecula weather pages are a service of WeatherCurrents. Temecula, California is located in the Temecula Valley, in southwestern Riverside County, along the Interstate 15 highway. The Temecula Valley's rolling hills are home to the Temecula wine country, vineyards, golf courses, a casino resort, and Old Town Temecula.
Copyright ©Mon Aug 21 01:35:11 PDT 2017  WeatherCurrents. All rights reserved. - Submit questions and comments - Privacy Policy

This page automatically refreshes every 10 minutes.